Wolgastern — CQLH — position and weather

sailwx.info

Track history (hours):
 
Tides and Currents Weather Stations Pressure Air Temp Water Temp Dewpoint Dewpoint Depression Visibility Wind Speed Wind Dir Waves Ship Positions

Wolgastern

Last reported at 2015-Feb-28 18:28 UTC. Time now 2015-Mar-01 06:59 UTC.
Position N 69°49' E 015°15'.

Length 162 m; draft 6.7 m.

Type: Ship. MMSI: 255804950.

Date/timePositionNaut miles runAvg speedWind from/ knotsBaromVisibWave heightAir tempDewpointWater temp
2015-Feb-28 18:28N 69°49' E 015°15'  
2015-Feb-24 22:10N 52°10' E 003°30'711.3
2015-Feb-24 21:31N 52°06' E 003°40'1010.0
2015-Feb-24 20:33N 52°02' E 003°55'1010.4
2015-Feb-24 19:33N 51°57' E 004°09'2 2.2
2015-Feb-24 18:33N 51°56' E 004°12'0 0.0
2015-Feb-23 09:25N 51°56' E 004°12'0 0.0
2015-Feb-23 08:34N 51°56' E 004°12'4 3.6
2015-Feb-23 07:33N 51°58' E 004°07'6 6.4
2015-Feb-23 06:33N 51°60' E 003°58'4 3.5
2015-Feb-23 05:33N 52°00' E 003°52'4 4.3
2015-Feb-23 04:33N 52°01' E 003°45'6 6.0
2015-Feb-23 03:34N 52°05' E 003°38'3 2.6
2015-Feb-23 02:31N 52°08' E 003°37'0 0.0
2015-Feb-23 01:33N 52°08' E 003°37'0 0.0
2015-Feb-23 00:23N 52°08' E 003°37'0 0.0
2015-Feb-22 23:25N 52°08' E 003°37'0 0.0
2015-Feb-22 22:33N 52°08' E 003°37'0 0.0
2015-Feb-22 21:30N 52°08' E 003°37'0 0.0
2015-Feb-22 20:28N 52°08' E 003°37'0 0.0
2015-Feb-22 19:32N 52°08' E 003°37'0 0.0
2015-Feb-22 18:31N 52°08' E 003°37'0 0.0
2015-Feb-22 16:28N 52°08' E 003°37'0 0.0
2015-Feb-22 14:28N 52°08' E 003°37'0 0.0
2015-Feb-22 11:32N 52°08' E 003°37'0 0.0
2015-Feb-22 08:13N 52°08' E 003°37'0 0.1
2015-Feb-22 07:32N 52°08' E 003°37'0 0.0
2015-Feb-22 06:33N 52°08' E 003°37'0 0.0
2015-Feb-22 05:31N 52°08' E 003°37'0 0.0
2015-Feb-22 04:33N 52°08' E 003°37'0 0.0
2015-Feb-22 03:31N 52°08' E 003°37'0 0.1
2015-Feb-22 02:05N 52°08' E 003°37'0 0.0
2015-Feb-21 20:19N 52°08' E 003°37'0 0.0
2015-Feb-21 19:18N 52°08' E 003°37'0 0.1
2015-Feb-21 18:17N 52°08' E 003°37'0 0.0
2015-Feb-21 17:33N 52°08' E 003°37'0 0.0
2015-Feb-21 16:32N 52°08' E 003°37'0 0.0
2015-Feb-21 15:33N 52°08' E 003°37'0 0.1
2015-Feb-21 14:18N 52°08' E 003°37'0 0.0
2015-Feb-21 08:22N 52°08' E 003°37'  
Track history (hours):
 
Tides and Currents Weather Stations Pressure Air Temp Water Temp Dewpoint Dewpoint Depression Visibility Wind Speed Wind Dir Waves Ship Positions

Wolgastern

Last reported at 2015-Feb-28 18:28 UTC. Time now 2015-Mar-01 06:59 UTC.
Position N 69°49' E 015°15'.

Length 162 m; draft 6.7 m.

Type: Ship. MMSI: 255804950.

Date/timePositionNaut miles runAvg speedWind from/ knotsBaromVisibWave heightAir tempDewpointWater temp
2015-Feb-28 18:28N 69°49' E 015°15'  
2015-Feb-24 22:10N 52°10' E 003°30'711.3
2015-Feb-24 21:31N 52°06' E 003°40'1010.0
2015-Feb-24 20:33N 52°02' E 003°55'1010.4
2015-Feb-24 19:33N 51°57' E 004°09'2 2.2
2015-Feb-24 18:33N 51°56' E 004°12'0 0.0
2015-Feb-23 09:25N 51°56' E 004°12'0 0.0
2015-Feb-23 08:34N 51°56' E 004°12'4 3.6
2015-Feb-23 07:33N 51°58' E 004°07'6 6.4
2015-Feb-23 06:33N 51°60' E 003°58'4 3.5
2015-Feb-23 05:33N 52°00' E 003°52'4 4.3
2015-Feb-23 04:33N 52°01' E 003°45'6 6.0
2015-Feb-23 03:34N 52°05' E 003°38'3 2.6
2015-Feb-23 02:31N 52°08' E 003°37'0 0.0
2015-Feb-23 01:33N 52°08' E 003°37'0 0.0
2015-Feb-23 00:23N 52°08' E 003°37'0 0.0
2015-Feb-22 23:25N 52°08' E 003°37'0 0.0
2015-Feb-22 22:33N 52°08' E 003°37'0 0.0
2015-Feb-22 21:30N 52°08' E 003°37'0 0.0
2015-Feb-22 20:28N 52°08' E 003°37'0 0.0
2015-Feb-22 19:32N 52°08' E 003°37'0 0.0
2015-Feb-22 18:31N 52°08' E 003°37'0 0.0
2015-Feb-22 16:28N 52°08' E 003°37'0 0.0
2015-Feb-22 14:28N 52°08' E 003°37'0 0.0
2015-Feb-22 11:32N 52°08' E 003°37'0 0.0
2015-Feb-22 08:13N 52°08' E 003°37'0 0.1
2015-Feb-22 07:32N 52°08' E 003°37'0 0.0
2015-Feb-22 06:33N 52°08' E 003°37'0 0.0
2015-Feb-22 05:31N 52°08' E 003°37'0 0.0
2015-Feb-22 04:33N 52°08' E 003°37'0 0.0
2015-Feb-22 03:31N 52°08' E 003°37'0 0.1
2015-Feb-22 02:05N 52°08' E 003°37'0 0.0
2015-Feb-21 20:19N 52°08' E 003°37'0 0.0
2015-Feb-21 19:18N 52°08' E 003°37'0 0.1
2015-Feb-21 18:17N 52°08' E 003°37'0 0.0
2015-Feb-21 17:33N 52°08' E 003°37'0 0.0
2015-Feb-21 16:32N 52°08' E 003°37'0 0.0
2015-Feb-21 15:33N 52°08' E 003°37'0 0.1
2015-Feb-21 14:18N 52°08' E 003°37'0 0.0
2015-Feb-21 08:22N 52°08' E 003°37'  

Dump ship's entire track history